Time;durP1;ratioP1;P1;durP2;ratioP2;P2;SDS_P1;SDS_P2;PMS_P1;PMS_P2;Temp;Humidity;BMP_temperature;BMP_pressure;BME280_temperature;BME280_humidity;BME280_pressure;Samples;Min_cycle;Max_cycle;Signal;HPM_P1;HPM_P2
2023/09/28 00:00:35;;;;;;;1999.90;999.90;;;;;;;14.25;100.00;94789.47;5064206;28;20236;-49
2023/09/28 00:02:46;;;;;;;1999.90;999.90;;;;;;;14.24;100.00;94785.16;5065133;28;20237;-48
2023/09/28 00:05:12;;;;;;;1999.90;999.90;;;;;;;14.22;100.00;94795.06;5064445;28;20213;-50
2023/09/28 00:07:43;;;;;;;1999.90;999.90;;;;;;;14.19;100.00;94796.69;5064384;28;20174;-51
2023/09/28 00:10:15;;;;;;;1999.90;999.90;;;;;;;14.18;100.00;94795.16;5064979;28;20174;-52
2023/09/28 00:12:42;;;;;;;1999.90;999.90;;;;;;;14.15;100.00;94785.03;5064296;28;20177;-52
2023/09/28 00:15:09;;;;;;;1999.90;999.90;;;;;;;14.13;100.00;94778.47;5064320;28;20178;-50
2023/09/28 00:17:36;;;;;;;1999.90;999.90;;;;;;;14.13;100.00;94778.47;5064720;28;20212;-50
2023/09/28 00:20:01;;;;;;;1999.90;999.90;;;;;;;14.10;100.00;94771.88;5064203;28;20170;-52
2023/09/28 00:22:26;;;;;;;1999.90;999.90;;;;;;;14.10;100.00;94766.38;5064089;28;20224;-50
2023/09/28 00:24:52;;;;;;;1999.90;999.90;;;;;;;14.09;100.00;94762.06;5064116;28;20180;-52
2023/09/28 00:27:18;;;;;;;1999.90;999.90;;;;;;;14.08;100.00;94768.00;5064620;28;20186;-49
2023/09/28 00:29:46;;;;;;;1999.90;999.90;;;;;;;14.10;100.00;94755.41;5063920;28;20237;-49
2023/09/28 00:32:12;;;;;;;1999.90;999.90;;;;;;;14.10;100.00;94755.41;5063991;28;20506;-51
2023/09/28 00:34:37;;;;;;;1999.90;999.90;;;;;;;14.06;100.00;94741.00;5063945;28;20163;-50
2023/09/28 00:37:03;;;;;;;1999.90;999.90;;;;;;;14.07;100.00;94731.56;5063907;28;20173;-53
2023/09/28 00:39:29;;;;;;;1999.90;999.90;;;;;;;14.06;100.00;94727.25;5063890;28;20162;-50
2023/09/28 00:41:54;;;;;;;1999.90;999.90;;;;;;;14.06;100.00;94726.50;5064378;28;20239;-49
2023/09/28 00:44:19;;;;;;;1999.90;999.90;;;;;;;14.06;100.00;94715.53;5064410;28;20173;-52
2023/09/28 00:46:44;;;;;;;1999.90;999.90;;;;;;;14.03;100.00;94703.47;5063795;28;20178;-52
2023/09/28 00:49:16;;;;;;;1999.90;999.90;;;;;;;13.96;100.00;94706.44;5063811;28;20227;-51
2023/09/28 00:51:47;;;;;;;1999.90;999.90;;;;;;;13.92;100.00;94711.28;5064209;28;20162;-50
2023/09/28 00:54:13;;;;;;;1999.90;999.90;;;;;;;13.89;100.00;94712.16;5064384;28;20229;-53
2023/09/28 00:56:40;;;;;;;1999.90;999.90;;;;;;;13.85;100.00;94725.22;5064072;28;20188;-53
2023/09/28 00:59:05;;;;;;;1999.90;999.90;;;;;;;13.85;100.00;94721.69;5063738;28;20239;-52
2023/09/28 01:01:31;;;;;;;1999.90;999.90;;;;;;;13.83;100.00;94724.88;5063575;28;20178;-52
2023/09/28 01:04:00;;;;;;;1999.90;999.90;;;;;;;13.81;100.00;94721.03;5064262;28;20420;-53
2023/09/28 01:06:26;;;;;;;1999.90;999.90;;;;;;;13.80;100.00;94723.00;5064137;28;20224;-51
2023/09/28 01:08:52;;;;;;;1999.90;999.90;;;;;;;13.82;100.00;94723.34;5064203;28;20165;-52
2023/09/28 01:11:18;;;;;;;1999.90;999.90;;;;;;;13.80;100.00;94730.50;5064321;28;20162;-52
2023/09/28 01:13:44;;;;;;;1999.90;999.90;;;;;;;13.77;100.00;94732.13;5067311;28;20459;-51
2023/09/28 01:16:09;;;;;;;1999.90;999.90;;;;;;;13.79;100.00;94729.72;5068121;28;20161;-54
2023/09/28 01:18:36;;;;;;;1999.90;999.90;;;;;;;13.83;100.00;94724.88;5067272;28;20265;-54
2023/09/28 01:21:02;;;;;;;1999.90;999.90;;;;;;;13.82;100.00;94717.84;5067518;28;20185;-51
2023/09/28 01:23:27;;;;;;;1999.90;999.90;;;;;;;13.86;100.00;94707.53;5067903;28;20194;-50
2023/09/28 01:25:53;;;;;;;1999.90;999.90;;;;;;;13.87;100.00;94709.06;5067413;28;20330;-51
2023/09/28 01:28:18;;;;;;;1999.90;999.90;;;;;;;13.90;100.00;94699.16;5067425;28;20185;-53
2023/09/28 01:30:44;;;;;;;1999.90;999.90;;;;;;;13.88;100.00;94683.13;5067399;28;20459;-50
2023/09/28 01:33:10;;;;;;;1999.90;999.90;;;;;;;13.91;100.00;94687.75;5067358;28;20162;-52
2023/09/28 01:35:36;;;;;;;1999.90;999.90;;;;;;;13.89;100.00;94673.72;5067711;28;20158;-55
2023/09/28 01:38:10;;;;;;;1999.90;999.90;;;;;;;13.89;100.00;94673.72;5067758;28;20354;-52
2023/09/28 01:40:39;;;;;;;1999.90;999.90;;;;;;;13.87;100.00;94678.13;5067140;28;20165;-52
2023/09/28 01:43:05;;;;;;;1999.90;999.90;;;;;;;13.85;100.00;94681.31;5067080;28;20265;-52
2023/09/28 01:45:30;;;;;;;1999.90;999.90;;;;;;;13.82;100.00;94671.19;5067527;28;20162;-49
2023/09/28 01:47:56;;;;;;;1999.90;999.90;;;;;;;13.82;100.00;94667.69;5067557;28;20502;-53
2023/09/28 01:50:21;;;;;;;1999.90;999.90;;;;;;;13.80;100.00;94664.63;5067322;28;20204;-53
2023/09/28 01:52:47;;;;;;;1999.90;999.90;;;;;;;13.82;100.00;94657.47;5066976;28;20219;-49
2023/09/28 01:55:12;;;;;;;1999.90;999.90;;;;;;;13.82;100.00;94652.00;5067444;28;20162;-50
2023/09/28 01:57:37;;;;;;;1999.90;999.90;;;;;;;13.79;100.00;94652.88;5067070;28;20194;-49
2023/09/28 02:00:20;;;;;;;1999.90;999.90;;;;;;;13.76;100.00;94642.75;5067398;28;20166;-51
2023/09/28 02:02:51;;;;;;;1999.90;999.90;;;;;;;13.72;100.00;94641.34;5066429;28;20190;-52
2023/09/28 02:05:18;;;;;;;1999.90;999.90;;;;;;;13.67;100.00;94639.94;5066302;28;20206;-51
2023/09/28 02:07:45;;;;;;;1999.90;999.90;;;;;;;13.63;100.00;94633.81;5065472;28;20162;-52
2023/09/28 02:10:11;;;;;;;1999.90;999.90;;;;;;;13.60;100.00;94644.88;5065444;28;20193;-52
2023/09/28 02:12:39;;;;;;;1999.90;999.90;;;;;;;13.57;100.00;94640.25;5065920;28;20169;-52
2023/09/28 02:15:06;;;;;;;1999.90;999.90;;;;;;;13.53;100.00;94634.91;5065307;28;20162;-51
2023/09/28 02:17:32;;;;;;;1999.90;999.90;;;;;;;13.52;100.00;94633.38;5064978;28;20166;-52
2023/09/28 02:19:57;;;;;;;1999.90;999.90;;;;;;;13.47;100.00;94628.41;5065740;28;20169;-49
2023/09/28 02:22:23;;;;;;;1999.90;999.90;;;;;;;13.46;100.00;94621.41;5065068;28;20185;-49
2023/09/28 02:24:50;;;;;;;1999.90;999.90;;;;;;;13.43;100.00;94624.28;5064965;28;20173;-52
2023/09/28 02:27:17;;;;;;;1999.90;999.90;;;;;;;13.43;100.00;94622.28;5065209;28;20176;-49
2023/09/28 02:29:43;;;;;;;1999.90;999.90;;;;;;;13.38;100.00;94620.09;5065088;28;20162;-52
2023/09/28 02:32:08;;;;;;;1999.90;999.90;;;;;;;13.38;100.00;94617.34;5065171;28;20177;-50
2023/09/28 02:34:34;;;;;;;1999.90;999.90;;;;;;;13.34;100.00;94616.72;5065415;28;20166;-53
2023/09/28 02:37:01;;;;;;;1999.90;999.90;;;;;;;13.30;100.00;94621.53;5065588;28;20169;-51
2023/09/28 02:39:28;;;;;;;1999.90;999.90;;;;;;;13.27;100.00;94616.91;5064943;28;20162;-52
2023/09/28 02:41:54;;;;;;;1999.90;999.90;;;;;;;13.28;100.00;94634.91;5065482;28;20193;-52
2023/09/28 02:44:19;;;;;;;1999.90;999.90;;;;;;;13.26;100.00;94624.38;5065428;28;20166;-50
2023/09/28 02:46:44;;;;;;;1999.90;999.90;;;;;;;13.28;100.00;94632.94;5065727;28;20162;-53
2023/09/28 02:49:10;;;;;;;1999.90;999.90;;;;;;;13.25;100.00;94631.06;5065377;28;20169;-53
2023/09/28 02:51:35;;;;;;;1999.90;999.90;;;;;;;13.24;100.00;94628.75;5065408;28;20161;-53
2023/09/28 02:54:00;;;;;;;1999.90;999.90;;;;;;;13.22;100.00;94625.69;5064886;28;20169;-52
2023/09/28 02:56:26;;;;;;;1999.90;999.90;;;;;;;13.19;100.00;94632.06;5064966;28;20198;-50
2023/09/28 02:58:51;;;;;;;1999.90;999.90;;;;;;;13.19;100.00;94626.56;5064614;28;20186;-50
2023/09/28 03:01:21;;;;;;;1999.90;999.90;;;;;;;13.17;100.00;94629.75;5064747;28;20287;-52
2023/09/28 03:03:46;;;;;;;1999.90;999.90;;;;;;;13.18;100.00;94631.28;5065044;28;20261;-49
2023/09/28 03:06:12;;;;;;;1999.90;999.90;;;;;;;13.18;100.00;94631.28;5026455;28;1132890;-51
2023/09/28 03:08:37;;;;;;;1999.90;999.90;;;;;;;13.15;100.00;94629.41;5066025;28;20177;-48
2023/09/28 03:11:03;;;;;;;1999.90;999.90;;;;;;;13.17;100.00;94631.72;5065536;28;20178;-51
2023/09/28 03:13:28;;;;;;;1999.90;999.90;;;;;;;13.14;100.00;94635.34;5065935;28;20174;-52
2023/09/28 03:15:54;;;;;;;1999.90;999.90;;;;;;;13.15;100.00;94636.88;5065659;28;20178;-51
2023/09/28 03:18:20;;;;;;;1999.90;999.90;;;;;;;13.17;100.00;94635.25;5065883;28;20239;-51
2023/09/28 03:20:45;;;;;;;1999.90;999.90;;;;;;;13.17;100.00;94642.69;5065304;28;20178;-51
2023/09/28 03:23:11;;;;;;;1999.90;999.90;;;;;;;13.15;100.00;94634.16;5065286;28;20197;-49
2023/09/28 03:25:37;;;;;;;1999.90;999.90;;;;;;;13.16;100.00;94641.16;5065159;28;20174;-53
2023/09/28 03:28:03;;;;;;;1999.90;999.90;;;;;;;13.13;100.00;94639.28;5065478;28;20238;-54
2023/09/28 03:30:28;;;;;;;1999.90;999.90;;;;;;;13.12;100.00;94643.25;5065585;28;20170;-50
2023/09/28 03:32:56;;;;;;;1999.90;999.90;;;;;;;13.15;100.00;94643.13;5065717;28;20177;-52
2023/09/28 03:35:22;;;;;;;1999.90;999.90;;;;;;;13.17;100.00;94642.69;5064734;28;20177;-52
2023/09/28 03:37:53;;;;;;;1999.90;999.90;;;;;;;13.20;100.00;94633.59;5065545;28;20174;-53
2023/09/28 03:40:19;;;;;;;1999.90;999.90;;;;;;;13.21;100.00;94632.38;5065473;28;20166;-50
2023/09/28 03:42:49;;;;;;;1999.90;999.90;;;;;;;13.19;100.00;94632.06;5064866;28;20201;-51
2023/09/28 03:45:20;;;;;;;1999.90;999.90;;;;;;;13.18;100.00;94630.50;5064822;28;20174;-48
2023/09/28 03:47:45;;;;;;;1999.90;999.90;;;;;;;13.16;100.00;94632.94;5065285;28;20158;-48
2023/09/28 03:50:14;;;;;;;1999.90;999.90;;;;;;;13.16;100.00;94632.94;5064766;28;20178;-52
2023/09/28 03:52:41;;;;;;;1999.90;999.90;;;;;;;13.15;100.00;94628.66;5064712;28;20240;-48
2023/09/28 03:55:15;;;;;;;1999.90;999.90;;;;;;;13.13;100.00;94629.09;5064562;28;20169;-53
2023/09/28 03:57:42;;;;;;;1999.90;999.90;;;;;;;13.10;100.00;94629.19;5064535;28;20381;-51
2023/09/28 04:00:13;;;;;;;1999.90;999.90;;;;;;;13.09;100.00;94638.63;5064530;28;20202;-52
2023/09/28 04:02:41;;;;;;;1999.90;999.90;;;;;;;13.06;100.00;94647.72;5065001;28;20186;-49
2023/09/28 04:05:07;;;;;;;1999.90;999.90;;;;;;;13.05;100.00;94643.44;5064197;28;20221;-54
2023/09/28 04:07:33;;;;;;;1999.90;999.90;;;;;;;13.00;100.00;94646.72;5064746;28;20174;-53
2023/09/28 04:09:59;;;;;;;1999.90;999.90;;;;;;;12.99;100.00;94645.97;5064658;28;20183;-52
2023/09/28 04:12:24;;;;;;;1999.90;999.90;;;;;;;13.08;100.00;94643.34;5064344;28;20181;-51
2023/09/28 04:14:49;;;;;;;1999.90;999.90;;;;;;;13.11;100.00;94647.16;5064334;28;20174;-52
2023/09/28 04:17:15;;;;;;;1999.90;999.90;;;;;;;13.12;100.00;94635.00;5064276;28;20361;-52
2023/09/28 04:19:41;;;;;;;1999.90;999.90;;;;;;;13.13;100.00;94639.28;5064127;28;20170;-51
2023/09/28 04:22:06;;;;;;;1999.90;999.90;;;;;;;13.10;100.00;94640.94;5064069;28;20208;-52
2023/09/28 04:24:32;;;;;;;1999.90;999.90;;;;;;;13.15;100.00;94636.88;5064495;28;20219;-51
2023/09/28 04:26:57;;;;;;;1999.90;999.90;;;;;;;13.23;100.00;94638.19;5064432;28;20170;-51
2023/09/28 04:29:26;;;;;;;1999.90;999.90;;;;;;;13.22;100.00;94631.16;5063710;28;20170;-52
2023/09/28 04:31:52;;;;;;;1999.90;999.90;;;;;;;13.28;100.00;94618.44;5063997;28;20170;-54
2023/09/28 04:34:18;;;;;;;1999.90;999.90;;;;;;;13.28;100.00;94610.22;5063982;28;20173;-49
2023/09/28 04:36:44;;;;;;;1999.90;999.90;;;;;;;13.27;100.00;94616.91;5064181;28;20174;-51
2023/09/28 04:39:11;;;;;;;1999.90;999.90;;;;;;;13.30;100.00;94616.06;5064681;28;20174;-51
2023/09/28 04:41:37;;;;;;;1999.90;999.90;;;;;;;13.28;100.00;94607.47;5064249;28;20242;-52
2023/09/28 04:44:09;;;;;;;1999.90;999.90;;;;;;;13.26;100.00;94609.91;5063762;28;20255;-52
2023/09/28 04:46:35;;;;;;;1999.90;999.90;;;;;;;13.26;100.00;94615.41;5064018;28;20195;-49
2023/09/28 04:49:00;;;;;;;1999.90;999.90;;;;;;;13.26;100.00;94610.66;5064299;28;20170;-53
2023/09/28 04:51:26;;;;;;;1999.90;999.90;;;;;;;13.27;100.00;94619.66;5064032;28;20196;-52
2023/09/28 04:53:51;;;;;;;1999.90;999.90;;;;;;;13.29;100.00;94609.78;5063931;28;20198;-53
2023/09/28 04:56:17;;;;;;;1999.90;999.90;;;;;;;13.30;100.00;94605.09;5063950;28;20169;-52
2023/09/28 04:58:43;;;;;;;1999.90;999.90;;;;;;;13.30;100.00;94603.09;5063749;28;20216;-53
2023/09/28 05:01:09;;;;;;;1999.90;999.90;;;;;;;13.31;100.00;94601.13;5063677;28;20170;-54
2023/09/28 05:03:35;;;;;;;1999.90;999.90;;;;;;;13.35;100.00;94596.28;5063409;28;20205;-52
2023/09/28 05:06:00;;;;;;;1999.90;999.90;;;;;;;13.38;100.00;94601.66;5063547;28;20222;-50
2023/09/28 05:08:26;;;;;;;1999.90;999.90;;;;;;;13.38;100.00;94600.91;5064047;28;20180;-49
2023/09/28 05:10:52;;;;;;;1999.90;999.90;;;;;;;13.41;100.00;94605.50;5064021;28;20170;-51
2023/09/28 05:13:18;;;;;;;1999.90;999.90;;;;;;;13.38;100.00;94612.63;5063457;28;20177;-53
2023/09/28 05:15:43;;;;;;;1999.90;999.90;;;;;;;13.38;100.00;94609.88;5063486;28;20185;-50
2023/09/28 05:18:08;;;;;;;1999.90;999.90;;;;;;;13.44;100.00;94609.34;5063393;28;20169;-53
2023/09/28 05:20:34;;;;;;;1999.90;999.90;;;;;;;13.48;100.00;94619.00;5063908;28;20212;-52
2023/09/28 05:22:59;;;;;;;1999.90;999.90;;;;;;;13.63;100.00;94617.34;5063167;28;20202;-52
2023/09/28 05:25:25;;;;;;;1999.90;999.90;;;;;;;13.79;100.00;94608.19;5063431;28;20169;-53
2023/09/28 05:27:51;;;;;;;1999.90;999.90;;;;;;;13.98;100.00;94610.66;5064010;28;20178;-53
2023/09/28 05:30:17;;;;;;;1999.90;999.90;;;;;;;14.15;100.00;94619.50;5063000;28;20226;-53
2023/09/28 05:32:42;;;;;;;1999.90;999.90;;;;;;;14.24;100.00;94623.13;5063427;28;20202;-53
2023/09/28 05:35:08;;;;;;;1999.90;999.90;;;;;;;14.41;100.00;94646.47;5063331;28;20357;-53
2023/09/28 05:37:33;;;;;;;1999.90;999.90;;;;;;;14.61;100.00;94666.16;5063014;28;20212;-51
2023/09/28 05:39:59;;;;;;;1999.90;999.90;;;;;;;14.89;100.00;94686.34;5063825;28;20174;-54
2023/09/28 05:42:25;;;;;;;1999.90;999.90;;;;;;;15.25;100.00;94705.84;5063311;28;20273;-50
2023/09/28 05:44:52;;;;;;;1999.90;999.90;;;;;;;15.67;100.00;94740.81;5063121;28;20169;-50
2023/09/28 05:47:20;;;;;;;1999.90;999.90;;;;;;;16.20;100.00;94808.38;5063580;28;20235;-53
2023/09/28 05:49:45;;;;;;;1999.90;999.90;;;;;;;16.80;100.00;94898.97;5063932;28;20186;-52
2023/09/28 05:52:10;;;;;;;1999.90;999.90;;;;;;;17.36;100.00;95029.13;5063395;28;20200;-51
2023/09/28 05:54:36;;;;;;;1999.90;999.90;;;;;;;17.80;100.00;95165.88;5063363;28;20170;-51
2023/09/28 05:57:01;;;;;;;1999.90;999.90;;;;;;;18.31;100.00;95322.56;5062938;28;20197;-54
2023/09/28 05:59:27;;;;;;;1999.90;999.90;;;;;;;18.82;100.00;95442.69;5066013;28;20177;-51
2023/09/28 06:01:53;;;;;;;1999.90;999.90;;;;;;;19.40;100.00;95531.38;5066546;28;20182;-54
2023/09/28 06:04:18;;;;;;;1999.90;999.90;;;;;;;19.96;100.00;95601.13;5067045;28;20216;-52
2023/09/28 06:06:43;;;;;;;1999.90;999.90;;;;;;;20.24;100.00;95611.06;5067349;28;20166;-53
2023/09/28 06:09:09;;;;;;;1999.90;999.90;;;;;;;20.75;100.00;95627.91;5066673;28;20174;-52
2023/09/28 06:11:34;;;;;;;1999.90;999.90;;;;;;;21.13;100.00;95642.84;5066543;28;20240;-54
2023/09/28 06:13:59;;;;;;;1999.90;999.90;;;;;;;21.44;100.00;95645.41;5067343;28;20174;-53
2023/09/28 06:16:25;;;;;;;1999.90;999.90;;;;;;;21.23;100.00;95647.16;5066179;28;20174;-53
2023/09/28 06:18:51;;;;;;;1999.90;999.90;;;;;;;20.99;100.00;95660.19;5066537;28;20173;-52
2023/09/28 06:21:16;;;;;;;1999.90;999.90;;;;;;;20.75;100.00;95656.44;5066981;28;20201;-53
2023/09/28 06:23:42;;;;;;;1999.90;999.90;;;;;;;20.28;100.00;95660.88;5066977;28;20190;-53
2023/09/28 06:26:07;;;;;;;1999.90;999.90;;;;;;;20.27;100.00;95654.53;5066523;28;20166;-52
2023/09/28 06:28:33;;;;;;;1999.90;999.90;;;;;;;20.24;100.00;95652.69;5066745;28;20193;-52
2023/09/28 06:30:58;;;;;;;1999.90;999.90;;;;;;;20.24;100.00;95661.00;5066714;28;20193;-52
2023/09/28 06:33:24;;;;;;;1999.90;999.90;;;;;;;20.07;100.00;95662.47;5066691;28;20170;-50
2023/09/28 06:35:50;;;;;;;1999.90;999.90;;;;;;;20.06;100.00;95666.47;5066210;28;20170;-52
2023/09/28 06:38:16;;;;;;;1999.90;999.90;;;;;;;20.63;100.00;95665.69;5066162;28;20174;-54
2023/09/28 06:40:43;;;;;;;1999.90;999.90;;;;;;;21.21;100.00;95666.31;5066396;28;20212;-53
2023/09/28 06:43:08;;;;;;;1999.90;999.90;;;;;;;21.10;100.00;95668.81;5066406;28;20197;-53
2023/09/28 06:45:34;;;;;;;1999.90;999.90;;;;;;;21.39;100.00;95674.63;5065798;28;20169;-52
2023/09/28 06:48:00;;;;;;;1999.90;999.90;;;;;;;22.20;100.00;95674.34;5065967;28;20176;-53
2023/09/28 06:50:25;;;;;;;1999.90;999.90;;;;;;;22.69;100.00;95665.56;5066168;28;20178;-53
2023/09/28 06:52:51;;;;;;;1999.90;999.90;;;;;;;23.32;100.00;95667.06;5066570;28;20174;-51
2023/09/28 06:55:17;;;;;;;1999.90;999.90;;;;;;;23.91;100.00;95668.59;5066267;28;20178;-50
2023/09/28 06:57:42;;;;;;;1999.90;999.90;;;;;;;24.67;100.00;95673.84;5066241;28;20240;-51
2023/09/28 07:00:09;;;;;;;1999.90;999.90;;;;;;;25.58;100.00;95673.91;5065737;28;20221;-52
2023/09/28 07:02:35;;;;;;;1999.90;999.90;;;;;;;25.76;100.00;95673.56;5065593;28;20201;-53
2023/09/28 07:05:01;;;;;;;1999.90;999.90;;;;;;;26.51;100.00;95676.69;5065261;28;20222;-53
2023/09/28 07:07:29;;;;;;;1999.90;999.90;;;;;;;26.51;100.00;95676.69;5066045;28;20180;-52
2023/09/28 07:09:55;;;;;;;1999.90;999.90;;;;;;;26.51;100.00;95676.69;5063812;28;20174;-52
2023/09/28 07:12:22;;;;;;;1999.90;999.90;;;;;;;27.95;100.00;95675.97;5065498;28;20170;-50
2023/09/28 07:14:47;;;;;;;1999.90;999.90;;;;;;;27.68;100.00;95682.28;5065860;28;20174;-49
2023/09/28 07:17:12;;;;;;;1999.90;999.90;;;;;;;27.69;100.00;95678.22;5065400;28;20198;-50
2023/09/28 07:19:38;;;;;;;1999.90;999.90;;;;;;;28.01;100.00;95682.34;5065404;28;20170;-49
2023/09/28 07:22:03;;;;;;;1999.90;999.90;;;;;;;27.91;100.00;95674.69;5065217;28;20198;-50
2023/09/28 07:24:33;;;;;;;1999.90;999.90;;;;;;;26.73;100.00;95682.44;5065116;28;20174;-50
2023/09/28 07:26:59;;;;;;;1999.90;999.90;;;;;;;25.81;100.00;95684.03;5065640;28;20178;-53
2023/09/28 07:29:24;;;;;;;1999.90;999.90;;;;;;;25.38;100.00;95701.16;5065171;28;20212;-52
2023/09/28 07:31:50;;;;;;;1999.90;999.90;;;;;;;25.42;100.00;95694.06;5065013;28;20174;-54
2023/09/28 07:34:15;;;;;;;1999.90;999.90;;;;;;;25.95;100.00;95694.38;5065534;28;20174;-53
2023/09/28 07:36:41;;;;;;;1999.90;999.90;;;;;;;27.16;100.00;95697.94;5064855;28;20174;-53
2023/09/28 07:39:06;;;;;;;1999.90;999.90;;;;;;;28.50;100.00;95702.50;5065019;28;20181;-51
2023/09/28 07:41:31;;;;;;;1999.90;999.90;;;;;;;28.87;100.00;95702.97;5064824;28;20174;-53
2023/09/28 07:43:57;;;;;;;1999.90;999.90;;;;;;;29.56;100.00;95710.88;5064416;28;20229;-52
2023/09/28 07:46:22;;;;;;;1999.90;999.90;;;;;;;30.00;100.00;95709.88;5065271;28;20170;-53
2023/09/28 07:48:47;;;;;;;1999.90;999.90;;;;;;;30.43;100.00;95710.81;5064707;28;20169;-54
2023/09/28 07:51:13;;;;;;;1999.90;999.90;;;;;;;31.60;95.40;95711.13;5064667;28;20174;-52
2023/09/28 07:53:39;;;;;;;1999.90;999.90;;;;;;;32.32;86.99;95713.69;5064632;28;20208;-52
2023/09/28 07:56:04;;;;;;;1999.90;999.90;;;;;;;32.84;82.27;95713.81;5064792;28;20194;-51
2023/09/28 07:58:29;;;;;;;1999.90;999.90;;;;;;;33.22;77.84;95715.91;5065021;28;20261;-54
2023/09/28 08:00:55;;;;;;;1999.90;999.90;;;;;;;33.51;72.21;95720.50;5064530;28;20177;-51
2023/09/28 08:03:20;;;;;;;1999.90;999.90;;;;;;;33.43;73.09;95716.81;5064838;28;20216;-53
2023/09/28 08:05:46;;;;;;;1999.90;999.90;;;;;;;33.43;73.09;95716.81;5064126;28;20228;-53
2023/09/28 08:08:11;;;;;;;1999.90;999.90;;;;;;;33.38;71.59;95717.69;5064975;28;20197;-58
2023/09/28 08:10:37;;;;;;;1999.90;999.90;;;;;;;33.18;72.76;95715.50;5064330;28;20170;-56
2023/09/28 08:13:03;;;;;;;1999.90;999.90;;;;;;;32.40;80.96;95715.34;5064250;28;20253;-54
2023/09/28 08:15:29;;;;;;;1999.90;999.90;;;;;;;32.22;82.36;95716.13;5064969;28;20189;-54
2023/09/28 08:17:55;;;;;;;1999.90;999.90;;;;;;;32.79;79.10;95718.28;5064770;28;20186;-58
2023/09/28 08:20:20;;;;;;;1999.90;999.90;;;;;;;32.79;79.10;95718.28;5064670;28;20177;-52
2023/09/28 08:22:49;;;;;;;1999.90;999.90;;;;;;;32.79;79.10;95718.28;5064241;28;20264;-58
2023/09/28 08:25:14;;;;;;;1999.90;999.90;;;;;;;33.81;69.33;95726.56;5064054;28;20197;-57
2023/09/28 08:27:41;;;;;;;1999.90;999.90;;;;;;;33.57;70.86;95726.81;5064482;28;20170;-57
2023/09/28 08:30:07;;;;;;;1999.90;999.90;;;;;;;32.82;72.11;95722.09;5063971;28;20170;-58
2023/09/28 08:32:32;;;;;;;1999.90;999.90;;;;;;;32.94;74.98;95712.09;5063982;28;20180;-55
2023/09/28 08:34:58;;;;;;;1999.90;999.90;;;;;;;33.27;74.68;95712.22;5064573;28;20171;-53
2023/09/28 08:37:24;;;;;;;1999.90;999.90;;;;;;;33.55;72.02;95715.28;5064133;28;20165;-55
2023/09/28 08:39:50;;;;;;;1999.90;999.90;;;;;;;32.81;72.05;95709.25;5064266;28;20215;-55
2023/09/28 08:42:23;;;;;;;1999.90;999.90;;;;;;;32.77;70.81;95703.88;5063792;28;20190;-53
2023/09/28 08:44:54;;;;;;;1999.90;999.90;;;;;;;32.46;74.97;95712.44;5064619;28;20165;-52
2023/09/28 08:47:22;;;;;;;1999.90;999.90;;;;;;;32.51;72.77;95720.81;5064023;28;20189;-54
2023/09/28 08:49:49;;;;;;;1999.90;999.90;;;;;;;32.51;72.77;95720.81;5063449;28;20253;-54
2023/09/28 08:52:16;;;;;;;1999.90;999.90;;;;;;;32.51;72.77;95720.81;5064256;28;20201;-54
2023/09/28 08:54:42;;;;;;;1999.90;999.90;;;;;;;32.51;72.77;95720.81;5064199;28;20169;-55
2023/09/28 08:57:10;;;;;;;1999.90;999.90;;;;;;;32.19;66.20;95722.84;5063062;28;20193;-55
2023/09/28 08:59:37;;;;;;;1999.90;999.90;;;;;;;32.73;70.34;95714.78;5063559;28;20193;-53
2023/09/28 09:02:03;;;;;;;1999.90;999.90;;;;;;;31.73;70.78;95711.97;5063483;28;20169;-55
2023/09/28 09:04:34;;;;;;;1999.90;999.90;;;;;;;31.73;70.78;95711.97;5063510;28;20240;-55
2023/09/28 09:07:02;;;;;;;1999.90;999.90;;;;;;;31.73;70.78;95711.97;5064058;28;20204;-58
2023/09/28 09:09:31;;;;;;;1999.90;999.90;;;;;;;31.73;70.78;95711.97;5064148;28;20167;-56
2023/09/28 09:11:58;;;;;;;1999.90;999.90;;;;;;;31.73;70.78;95711.97;5064077;28;20170;-57
2023/09/28 09:14:32;;;;;;;1999.90;999.90;;;;;;;31.73;70.78;95711.97;5063466;28;20165;-56
2023/09/28 09:16:57;;;;;;;1999.90;999.90;;;;;;;31.73;70.78;95711.97;5064267;28;20200;-56
2023/09/28 09:19:30;;;;;;;1999.90;999.90;;;;;;;31.73;70.78;95711.97;5064052;28;20170;-58
2023/09/28 09:21:55;;;;;;;1999.90;999.90;;;;;;;31.73;70.78;95711.97;5063854;28;20158;-57
2023/09/28 09:24:22;;;;;;;1999.90;999.90;;;;;;;31.73;70.78;95711.97;5063360;28;20196;-57
2023/09/28 09:26:49;;;;;;;1999.90;999.90;;;;;;;31.73;70.78;95711.97;5063869;28;20181;-55
2023/09/28 09:29:15;;;;;;;1999.90;999.90;;;;;;;31.73;70.78;95711.97;5063852;28;20193;-54
2023/09/28 09:31:42;;;;;;;1999.90;999.90;;;;;;;31.73;70.78;95711.97;5063612;28;20233;-54
2023/09/28 09:34:11;;;;;;;1999.90;999.90;;;;;;;31.73;70.78;95711.97;5065918;28;20245;-51
2023/09/28 09:36:38;;;;;;;1999.90;999.90;;;;;;;31.73;70.78;95711.97;5067466;28;20241;-54
2023/09/28 09:39:03;;;;;;;1999.90;999.90;;;;;;;31.73;70.78;95711.97;5067724;28;20170;-55
2023/09/28 09:41:29;;;;;;;1999.90;999.90;;;;;;;31.73;70.78;95711.97;5067180;28;20197;-53
2023/09/28 09:43:57;;;;;;;1999.90;999.90;;;;;;;31.73;70.78;95711.97;5067017;28;20205;-56
2023/09/28 09:46:25;;;;;;;1999.90;999.90;;;;;;;31.73;70.78;95711.97;5067118;28;20174;-56
2023/09/28 09:48:50;;;;;;;1999.90;999.90;;;;;;;31.73;70.78;95711.97;5067071;28;20181;-54
2023/09/28 09:51:17;;;;;;;1999.90;999.90;;;;;;;31.73;70.78;95711.97;5067374;28;20170;-55
2023/09/28 09:53:46;;;;;;;1999.90;999.90;;;;;;;31.73;70.78;95711.97;5066750;28;20198;-56
2023/09/28 09:56:13;;;;;;;1999.90;999.90;;;;;;;31.73;70.78;95711.97;5067285;28;20177;-56
2023/09/28 09:58:49;;;;;;;1999.90;999.90;;;;;;;31.73;70.78;95711.97;5067247;28;20189;-55
2023/09/28 10:01:19;;;;;;;1999.90;999.90;;;;;;;31.73;70.78;95711.97;5067285;28;20180;-53
2023/09/28 10:03:52;;;;;;;1999.90;999.90;;;;;;;31.73;70.78;95711.97;5067192;28;20224;-54
2023/09/28 10:06:19;;;;;;;1999.90;999.90;;;;;;;31.73;70.78;95711.97;5066589;28;20275;-54
2023/09/28 10:08:46;;;;;;;1999.90;999.90;;;;;;;31.73;70.78;95711.97;5066784;28;20166;-54
2023/09/28 10:11:13;;;;;;;1999.90;999.90;;;;;;;31.73;70.78;95711.97;5066686;28;20174;-55
2023/09/28 10:13:39;;;;;;;1999.90;999.90;;;;;;;31.73;70.78;95711.97;5066596;28;20219;-56
2023/09/28 10:16:07;;;;;;;1999.90;999.90;;;;;;;31.73;70.78;95711.97;5067078;28;20268;-58
2023/09/28 10:18:35;;;;;;;1999.90;999.90;;;;;;;31.73;70.78;95711.97;5066485;28;20177;-54
2023/09/28 10:21:01;;;;;;;1999.90;999.90;;;;;;;31.73;70.78;95711.97;5066635;28;20170;-56
2023/09/28 10:23:28;;;;;;;1999.90;999.90;;;;;;;31.73;70.78;95711.97;5066879;28;20240;-54
2023/09/28 10:25:59;;;;;;;1999.90;999.90;;;;;;;31.73;70.78;95711.97;5066364;28;20169;-51
2023/09/28 10:28:24;;;;;;;1999.90;999.90;;;;;;;31.73;70.78;95711.97;5066285;28;20254;-51
2023/09/28 10:31:09;;;;;;;1999.90;999.90;;;;;;;31.73;70.78;95711.97;5066050;28;20192;-52
2023/09/28 10:33:35;;;;;;;1999.90;999.90;;;;;;;31.73;70.78;95711.97;5066756;28;20165;-52
2023/09/28 10:36:13;;;;;;;1999.90;999.90;;;;;;;32.14;56.24;95701.09;5066494;28;20182;-49
2023/09/28 10:38:41;;;;;;;1999.90;999.90;;;;;;;31.73;56.41;95697.06;5065971;28;20251;-49
2023/09/28 10:41:07;;;;;;;1999.90;999.90;;;;;;;31.62;56.94;95692.34;5066335;28;20197;-48
2023/09/28 10:43:40;;;;;;;1999.90;999.90;;;;;;;31.08;61.21;95688.91;5066193;28;20220;-47
2023/09/28 10:46:07;;;;;;;1999.90;999.90;;;;;;;31.09;56.04;95687.59;5065916;28;20166;-50